Time;durP1;ratioP1;P1;durP2;ratioP2;P2;SDS_P1;SDS_P2;PMS_P1;PMS_P2;Temp;Humidity;BMP_temperature;BMP_pressure;BME280_temperature;BME280_humidity;BME280_pressure;Samples;Min_cycle;Max_cycle;Signal;HPM_P1;HPM_P2
2022/01/30 00:01:33;;;;;;;20.55;16.55;;;;;;;18.99;42.65;101236.50;4976103;28;20486;-42
2022/01/30 00:03:58;;;;;;;20.65;16.95;;;;;;;18.99;42.47;101236.50;4985383;28;20477;-41
2022/01/30 00:06:24;;;;;;;19.38;16.27;;;;;;;18.96;42.52;101223.66;4979461;28;20027;-41
2022/01/30 00:08:50;;;;;;;17.55;15.65;;;;;;;18.96;42.46;101226.31;4983541;28;20038;-43
2022/01/30 00:11:21;;;;;;;18.55;15.25;;;;;;;18.95;42.40;101227.31;4977790;28;20026;-44
2022/01/30 00:13:46;;;;;;;20.08;16.52;;;;;;;18.94;42.25;101223.03;4982699;28;20134;-40
2022/01/30 00:16:15;;;;;;;20.58;16.63;;;;;;;18.93;42.22;101226.66;4977819;28;20110;-40
2022/01/30 00:23:53;;;;;;;17.60;14.18;;;;;;;18.89;42.13;101205.94;4982499;28;20085;-41
2022/01/30 00:26:20;;;;;;;17.60;14.50;;;;;;;18.89;42.11;101216.50;4971563;28;20038;-41
2022/01/30 00:28:45;;;;;;;17.63;14.43;;;;;;;18.89;41.92;101205.09;4981662;28;20458;-42
2022/01/30 00:31:19;;;;;;;20.30;14.18;;;;;;;18.88;42.07;101195.53;4981607;28;20037;-44
2022/01/30 00:33:45;;;;;;;20.23;13.98;;;;;;;18.87;42.02;101193.91;4982513;28;20034;-41
2022/01/30 00:36:10;;;;;;;16.85;13.18;;;;;;;18.86;41.86;101177.25;4972255;28;20597;-40
2022/01/30 00:38:35;;;;;;;18.02;13.40;;;;;;;18.86;41.83;101174.59;4985007;28;20045;-42
2022/01/30 00:41:01;;;;;;;13.93;11.38;;;;;;;18.85;42.18;101175.59;4976726;28;20037;-40
2022/01/30 00:43:26;;;;;;;16.23;11.32;;;;;;;18.84;42.35;101181.06;4982657;28;20027;-43
2022/01/30 00:45:52;;;;;;;13.07;10.85;;;;;;;18.84;42.28;101181.06;4975176;28;20057;-43
2022/01/30 00:48:17;;;;;;;13.02;10.82;;;;;;;18.83;42.30;101168.88;4977226;28;20366;-39
2022/01/30 00:50:43;;;;;;;12.27;10.70;;;;;;;18.84;42.06;101170.50;4981650;28;20447;-42
2022/01/30 00:53:08;;;;;;;14.48;10.23;;;;;;;18.84;42.27;101166.03;4973860;28;20426;-42
2022/01/30 00:55:35;;;;;;;14.95;9.70;;;;;;;18.84;42.27;101165.22;4976556;28;20184;-41
2022/01/30 00:58:02;;;;;;;11.35;9.57;;;;;;;18.83;42.07;101153.84;4977600;28;20557;-44
2022/01/30 01:00:29;;;;;;;13.15;9.77;;;;;;;18.82;42.21;101152.22;4991627;28;20037;-42
2022/01/30 01:02:55;;;;;;;10.55;8.43;;;;;;;18.83;42.22;101148.56;4979817;28;20030;-42
2022/01/30 01:05:21;;;;;;;12.43;8.80;;;;;;;18.83;42.23;101143.28;4978122;28;20045;-40
2022/01/30 01:07:48;;;;;;;12.30;9.13;;;;;;;18.82;42.26;101133.72;4977684;28;20031;-42
2022/01/30 01:23:31;;;;;;;8.88;7.80;;;;;;;18.68;41.95;101108.13;4982459;28;20043;-41
2022/01/30 01:25:58;;;;;;;10.57;8.90;;;;;;;18.69;42.06;101112.41;4969257;28;20127;-40
2022/01/30 01:28:25;;;;;;;9.48;8.20;;;;;;;18.70;42.06;101100.03;4980118;28;20038;-43
2022/01/30 01:30:51;;;;;;;9.43;8.20;;;;;;;18.72;42.08;101093.59;4980548;28;20035;-42
2022/01/30 01:33:18;;;;;;;9.55;8.13;;;;;;;18.70;42.13;101092.94;4976792;28;20027;-42
2022/01/30 01:35:43;;;;;;;11.30;8.38;;;;;;;18.71;42.08;101093.75;4973791;28;20498;-42
2022/01/30 01:38:12;;;;;;;11.35;8.18;;;;;;;18.70;42.20;101085.03;4982652;28;20073;-41
2022/01/30 01:40:40;;;;;;;9.45;7.97;;;;;;;18.70;42.18;101087.66;4978453;28;20117;-40
2022/01/30 01:43:06;;;;;;;10.82;8.93;;;;;;;18.70;41.97;101082.38;4975620;28;20113;-40
2022/01/30 01:45:36;;;;;;;8.43;7.57;;;;;;;18.69;42.17;101077.28;4978535;28;20605;-41
2022/01/30 01:48:09;;;;;;;11.00;7.95;;;;;;;18.69;42.23;101077.28;4976576;28;20031;-39
2022/01/30 01:50:40;;;;;;;7.82;6.28;;;;;;;18.67;42.08;101074.84;4969537;28;20535;-41
2022/01/30 01:53:08;;;;;;;8.07;6.97;;;;;;;18.65;42.04;101068.91;4972874;28;20101;-41
2022/01/30 01:55:35;;;;;;;9.85;7.03;;;;;;;18.63;41.95;101056.91;4984782;28;20030;-41
2022/01/30 01:58:01;;;;;;;11.45;6.95;;;;;;;18.61;41.97;101053.63;4986627;28;20038;-43
2022/01/30 02:00:27;;;;;;;7.22;6.22;;;;;;;18.59;41.94;101048.50;4986098;28;20121;-40
2022/01/30 02:02:54;;;;;;;6.75;5.72;;;;;;;18.57;42.08;101053.97;4981161;28;20034;-43
2022/01/30 02:05:19;;;;;;;6.07;5.43;;;;;;;18.56;41.92;101051.50;4975883;28;20427;-41
2022/01/30 02:12:54;;;;;;;6.00;5.10;;;;;;;18.51;41.93;101041.50;4957650;23;20057;-41
2022/01/30 02:26:03;;;;;;;7.72;5.85;;;;;;;18.45;41.83;101015.81;4989816;28;20136;-40
2022/01/30 02:28:31;;;;;;;8.55;6.22;;;;;;;18.46;41.77;101003.47;4991294;28;20492;-42
2022/01/30 02:31:09;;;;;;;6.18;5.18;;;;;;;18.45;41.77;101007.09;5007844;28;20038;-42
2022/01/30 02:33:34;;;;;;;7.32;4.97;;;;;;;18.43;41.79;100999.34;4990594;28;20036;-41
2022/01/30 02:36:00;;;;;;;6.40;4.93;;;;;;;18.43;41.73;101003.84;5008845;28;20057;-41
2022/01/30 02:38:27;;;;;;;9.38;6.30;;;;;;;18.43;41.83;100998.56;5009018;28;20042;-40
2022/01/30 02:40:55;;;;;;;8.45;6.22;;;;;;;18.46;41.72;101011.38;5008747;28;20139;-42
2022/01/30 02:43:27;;;;;;;7.57;5.90;;;;;;;18.46;41.81;100999.00;5007942;28;20069;-42
2022/01/30 02:46:24;;;;;;;8.15;6.00;;;;;;;18.46;41.78;101001.63;5006551;28;20030;-41
2022/01/30 02:51:16;;;;;;;7.43;5.18;;;;;;;18.46;41.86;100990.25;4991605;28;20045;-42
2022/01/30 02:53:46;;;;;;;7.35;6.05;;;;;;;18.47;41.82;100994.53;5007917;28;20045;-39
2022/01/30 02:56:11;;;;;;;7.72;5.85;;;;;;;18.46;41.84;100979.72;4985362;28;20560;-39
2022/01/30 02:58:36;;;;;;;6.63;5.22;;;;;;;18.46;41.85;100983.16;4986847;28;20511;-42
2022/01/30 03:01:02;;;;;;;6.82;5.28;;;;;;;18.46;41.85;100969.97;5008855;28;20228;-40
2022/01/30 03:03:28;;;;;;;7.13;5.63;;;;;;;18.45;41.76;100970.97;5008978;28;20038;-41
2022/01/30 03:05:53;;;;;;;6.20;4.63;;;;;;;18.45;41.85;100970.97;5000357;28;20485;-42
2022/01/30 03:08:19;;;;;;;8.38;5.18;;;;;;;18.44;41.82;100964.06;5007967;28;20445;-42
2022/01/30 03:10:44;;;;;;;6.72;5.40;;;;;;;18.45;41.83;100962.25;5009153;28;20386;-40
2022/01/30 03:13:09;;;;;;;6.65;5.15;;;;;;;18.44;41.87;100960.59;5006874;28;20056;-42
2022/01/30 03:15:35;;;;;;;6.63;5.43;;;;;;;18.44;41.80;100963.25;5008170;28;20029;-42
2022/01/30 03:18:01;;;;;;;7.25;5.68;;;;;;;18.44;41.88;100961.44;5006447;28;20133;-41
2022/01/30 03:20:27;;;;;;;6.63;4.88;;;;;;;18.44;41.79;100964.06;5009115;28;20053;-41
2022/01/30 03:22:53;;;;;;;6.57;5.15;;;;;;;18.44;41.79;100968.53;5007383;28;20460;-40
2022/01/30 03:25:18;;;;;;;5.97;4.80;;;;;;;18.43;41.77;100966.91;5008914;28;20030;-41
2022/01/30 03:27:50;;;;;;;7.35;4.93;;;;;;;18.42;41.64;100975.81;4989377;28;20038;-42
2022/01/30 03:30:24;;;;;;;6.53;4.80;;;;;;;18.40;41.62;100965.47;5008144;28;20041;-41
2022/01/30 03:32:49;;;;;;;5.57;4.20;;;;;;;18.37;41.48;100959.72;5007878;28;20400;-39
2022/01/30 03:35:14;;;;;;;5.32;4.45;;;;;;;18.35;41.49;100959.91;5008584;28;20029;-39
2022/01/30 03:37:40;;;;;;;5.95;4.32;;;;;;;18.32;41.47;100957.63;5006471;28;20344;-42
2022/01/30 03:40:06;;;;;;;5.95;4.07;;;;;;;18.30;41.61;100951.72;5008573;28;20022;-41
2022/01/30 03:42:32;;;;;;;4.82;3.97;;;;;;;18.30;41.52;100932.44;5006415;28;20552;-39
2022/01/30 03:44:57;;;;;;;7.65;4.93;;;;;;;18.31;41.55;100934.09;5007662;28;20048;-39
2022/01/30 03:47:24;;;;;;;7.60;4.78;;;;;;;18.30;41.47;100932.44;5006949;28;20249;-39
2022/01/30 03:49:50;;;;;;;5.13;4.13;;;;;;;18.31;41.41;100931.44;4989687;28;20029;-42
2022/01/30 03:52:16;;;;;;;6.20;4.97;;;;;;;18.30;41.32;100922.72;5008705;28;20094;-39
2022/01/30 03:54:42;;;;;;;5.60;4.60;;;;;;;18.30;41.40;100921.91;4989547;28;20034;-40
2022/01/30 03:57:07;;;;;;;8.90;5.18;;;;;;;18.29;41.27;100929.00;5006958;28;20511;-41
2022/01/30 03:59:33;;;;;;;7.05;4.45;;;;;;;18.30;41.32;100924.53;4999392;28;20293;-42
2022/01/30 04:01:58;;;;;;;4.72;3.97;;;;;;;18.29;41.33;100917.63;4988212;28;20488;-39
2022/01/30 04:04:24;;;;;;;5.05;4.00;;;;;;;18.28;41.24;100922.06;4993817;28;20037;-41
2022/01/30 04:06:50;;;;;;;6.22;4.35;;;;;;;18.29;41.23;100910.53;5006262;28;20476;-39
2022/01/30 04:09:15;;;;;;;7.47;4.43;;;;;;;18.28;41.31;100918.63;5007656;28;20041;-41
2022/01/30 04:11:41;;;;;;;5.82;4.25;;;;;;;18.27;41.25;100903.78;5006968;28;20045;-41
2022/01/30 04:14:07;;;;;;;5.85;4.50;;;;;;;18.26;41.26;100891.59;5001908;28;20045;-41
2022/01/30 04:16:33;;;;;;;4.50;3.78;;;;;;;18.26;41.29;100888.97;4989034;28;20031;-40
2022/01/30 04:18:58;;;;;;;7.00;3.65;;;;;;;18.23;41.29;100885.69;5006425;28;20066;-42
2022/01/30 04:21:24;;;;;;;6.30;4.28;;;;;;;18.22;41.27;100886.69;5007874;28;20235;-41
2022/01/30 04:23:49;;;;;;;6.55;3.53;;;;;;;18.21;41.14;100887.69;4999145;28;20100;-43
2022/01/30 04:26:15;;;;;;;4.32;3.20;;;;;;;18.20;41.33;100878.16;5004668;28;20029;-42
2022/01/30 04:28:41;;;;;;;4.30;3.35;;;;;;;18.19;41.15;100880.97;5006808;28;20069;-41
2022/01/30 04:31:06;;;;;;;5.38;3.00;;;;;;;18.19;41.29;100886.25;5001985;28;20033;-39
2022/01/30 04:33:32;;;;;;;5.05;3.55;;;;;;;18.16;41.15;100876.88;5006651;28;20068;-42
2022/01/30 04:36:04;;;;;;;5.68;3.75;;;;;;;18.16;41.23;100886.63;5007470;28;20026;-42
2022/01/30 04:38:39;;;;;;;6.07;3.75;;;;;;;18.16;41.23;100876.88;4988720;28;20029;-42
2022/01/30 04:41:25;;;;;;;6.68;3.25;;;;;;;18.13;41.16;100885.16;4989437;28;20037;-40
2022/01/30 04:57:54;;;;;;;5.57;3.97;;;;;;;18.05;41.10;100861.53;4951061;28;20057;-42
2022/01/30 05:08:04;;;;;;;6.30;3.35;;;;;;;18.04;41.01;100857.25;5007438;28;20037;-40
2022/01/30 05:10:30;;;;;;;4.35;3.20;;;;;;;18.04;40.92;100851.16;5006037;28;20489;-40
2022/01/30 05:12:58;;;;;;;5.07;3.70;;;;;;;18.05;40.82;100847.53;4987535;28;20056;-43
2022/01/30 05:15:27;;;;;;;4.95;3.10;;;;;;;18.03;40.93;100852.97;5000493;28;20026;-42
2022/01/30 05:17:52;;;;;;;4.50;3.53;;;;;;;18.04;41.03;100849.34;5007090;28;20034;-43
2022/01/30 05:20:18;;;;;;;4.95;3.65;;;;;;;18.03;40.86;100837.16;5005996;28;20048;-39
2022/01/30 05:22:44;;;;;;;4.72;3.42;;;;;;;18.05;40.91;100829.06;5005040;28;20033;-40
2022/01/30 05:25:10;;;;;;;4.03;3.08;;;;;;;18.05;40.96;100836.97;5006612;28;20036;-41
2022/01/30 05:27:36;;;;;;;4.85;3.75;;;;;;;18.05;40.88;100831.72;4988981;28;20065;-41
2022/01/30 05:30:02;;;;;;;5.28;3.72;;;;;;;18.04;40.93;100825.63;4999272;28;20081;-41
2022/01/30 05:32:28;;;;;;;4.63;3.65;;;;;;;18.03;41.03;100842.44;5005510;28;20104;-39
2022/01/30 05:34:55;;;;;;;3.83;3.20;;;;;;;18.03;40.98;100839.81;5006901;28;20022;-40
2022/01/30 05:37:21;;;;;;;4.75;3.28;;;;;;;18.02;40.89;100830.25;5005960;28;20057;-40
2022/01/30 05:39:47;;;;;;;4.40;3.50;;;;;;;18.01;40.92;100836.53;5006484;28;20068;-41
2022/01/30 05:42:13;;;;;;;4.93;3.55;;;;;;;18.00;40.72;100837.53;5006135;28;20037;-40
2022/01/30 05:47:14;;;;;;;4.32;2.83;;;;;;;18.01;40.89;100825.16;5005233;28;20042;-43
2022/01/30 05:49:40;;;;;;;4.40;3.70;;;;;;;18.00;40.97;100831.44;4986997;28;20494;-42
2022/01/30 05:52:06;;;;;;;4.28;3.00;;;;;;;17.98;40.98;100836.91;5005732;28;20054;-39
2022/01/30 05:54:31;;;;;;;4.22;3.25;;;;;;;17.98;40.97;100831.63;5006226;28;20030;-39
2022/01/30 05:56:57;;;;;;;4.53;3.40;;;;;;;17.96;40.91;100831.00;5004814;28;20144;-39
2022/01/30 05:59:22;;;;;;;5.38;3.55;;;;;;;17.95;40.86;100826.75;5007761;28;20026;-41
2022/01/30 06:01:48;;;;;;;3.85;2.58;;;;;;;17.93;40.90;100828.75;5007358;28;20129;-41
2022/01/30 06:04:13;;;;;;;4.38;3.15;;;;;;;17.92;41.08;100827.09;5009809;28;20063;-41
2022/01/30 06:06:47;;;;;;;5.57;3.40;;;;;;;17.91;40.93;100838.66;5010929;28;20042;-40
2022/01/30 06:09:21;;;;;;;4.53;3.15;;;;;;;17.91;40.86;100830.75;5009109;28;20037;-41
2022/01/30 06:11:49;;;;;;;4.90;2.80;;;;;;;17.90;40.87;100834.38;5009645;28;20057;-42
2022/01/30 06:14:21;;;;;;;3.95;2.83;;;;;;;17.90;40.88;100823.84;5005452;28;20138;-42
2022/01/30 06:16:49;;;;;;;3.58;2.83;;;;;;;17.90;41.05;100827.28;5000089;28;20038;-40
2022/01/30 06:19:15;;;;;;;3.70;2.05;;;;;;;17.94;41.00;100838.28;5010144;28;20026;-39
2022/01/30 06:21:40;;;;;;;3.28;2.47;;;;;;;17.96;41.13;100827.56;5007574;28;20100;-41
2022/01/30 06:24:06;;;;;;;2.85;2.35;;;;;;;17.99;41.04;100824.53;5009795;28;20080;-42
2022/01/30 06:26:31;;;;;;;3.97;2.65;;;;;;;18.02;41.02;100826.81;4996981;28;20092;-43
2022/01/30 06:28:57;;;;;;;3.78;2.90;;;;;;;18.06;41.13;100836.78;4994264;28;20121;-41
2022/01/30 06:31:23;;;;;;;4.57;2.15;;;;;;;18.09;41.12;100840.88;5008117;28;20045;-41
2022/01/30 06:33:50;;;;;;;4.38;2.67;;;;;;;18.13;41.10;100850.88;5010152;28;20045;-39
2022/01/30 06:36:15;;;;;;;4.25;2.78;;;;;;;18.16;41.03;100847.88;5008281;28;20033;-39
2022/01/30 06:38:41;;;;;;;2.92;2.20;;;;;;;18.21;41.04;100857.88;5009527;28;20030;-42
2022/01/30 06:41:06;;;;;;;4.38;2.13;;;;;;;18.23;41.08;100858.50;5008499;28;20033;-39
2022/01/30 06:43:32;;;;;;;6.85;2.70;;;;;;;18.27;41.03;100845.78;4989783;28;20038;-41
2022/01/30 06:45:57;;;;;;;3.88;2.45;;;;;;;18.30;41.02;100861.22;5008699;28;20038;-40
2022/01/30 06:48:23;;;;;;;2.83;2.13;;;;;;;18.33;41.04;100866.94;5009834;28;20473;-41
2022/01/30 06:50:49;;;;;;;3.28;2.40;;;;;;;18.36;40.92;100868.41;4999281;28;20042;-40
2022/01/30 06:53:14;;;;;;;4.82;2.45;;;;;;;18.39;40.86;100852.22;5009519;28;20156;-40
2022/01/30 06:55:42;;;;;;;4.57;2.00;;;;;;;18.42;40.83;100879.03;5008412;28;20033;-41
2022/01/30 06:58:14;;;;;;;5.47;2.13;;;;;;;18.43;40.92;100867.44;4991473;28;20033;-41
2022/01/30 07:00:40;;;;;;;3.05;2.28;;;;;;;18.46;40.79;100867.09;5003700;28;20068;-40
2022/01/30 07:03:06;;;;;;;2.72;2.17;;;;;;;18.48;40.91;100870.34;5008454;28;20109;-41
2022/01/30 07:05:31;;;;;;;4.10;2.00;;;;;;;18.50;40.94;100875.44;5009013;28;20163;-42
2022/01/30 07:07:57;;;;;;;3.38;2.28;;;;;;;18.50;40.91;100865.72;4990269;28;20069;-40
2022/01/30 07:10:23;;;;;;;3.53;2.35;;;;;;;18.53;40.85;100877.72;5007590;28;20033;-41
2022/01/30 07:12:49;;;;;;;4.13;2.30;;;;;;;18.54;40.94;100877.53;5008920;28;20050;-43
2022/01/30 07:15:14;;;;;;;3.20;2.33;;;;;;;18.56;40.84;100877.34;5000143;28;20105;-39
2022/01/30 07:17:41;;;;;;;2.55;2.05;;;;;;;18.57;40.83;100874.50;4995817;28;20041;-39
2022/01/30 07:20:06;;;;;;;3.92;2.17;;;;;;;18.60;40.80;100865.44;4993917;28;20034;-40
2022/01/30 07:22:32;;;;;;;3.50;1.88;;;;;;;18.62;40.93;100881.09;5008679;28;20033;-43
2022/01/30 07:24:58;;;;;;;2.95;2.10;;;;;;;18.62;40.85;100881.91;5007269;28;20504;-39
2022/01/30 07:27:24;;;;;;;4.30;2.15;;;;;;;18.67;40.94;100873.44;5008923;28;20041;-40
2022/01/30 07:29:50;;;;;;;3.70;2.00;;;;;;;18.75;40.98;100871.50;5003304;28;20038;-40
2022/01/30 07:32:15;;;;;;;9.77;1.80;;;;;;;18.81;40.69;100876.03;5007489;28;20028;-41
2022/01/30 07:34:41;;;;;;;3.33;1.83;;;;;;;18.85;40.96;100877.28;5007346;28;20195;-42
2022/01/30 07:37:08;;;;;;;2.97;1.60;;;;;;;18.87;40.99;100880.56;4988596;28;20029;-41
2022/01/30 07:39:36;;;;;;;3.20;1.88;;;;;;;18.92;40.90;100868.59;5008198;28;20343;-41
2022/01/30 07:42:02;;;;;;;3.70;1.90;;;;;;;18.95;40.81;100870.84;4989181;28;20080;-41
2022/01/30 07:44:28;;;;;;;3.33;2.20;;;;;;;18.98;40.71;100870.47;5001371;28;20022;-40
2022/01/30 07:46:53;;;;;;;3.47;2.22;;;;;;;19.01;40.81;100875.38;5005647;28;20040;-45
2022/01/30 07:49:19;;;;;;;3.42;2.20;;;;;;;19.04;40.77;100864.44;5008096;28;20022;-41
2022/01/30 07:51:44;;;;;;;3.60;1.85;;;;;;;19.08;40.58;100866.50;5006984;28;20037;-42
2022/01/30 07:54:10;;;;;;;3.55;2.45;;;;;;;19.11;40.57;100874.06;5006975;28;20033;-39
2022/01/30 07:56:35;;;;;;;3.15;1.95;;;;;;;19.15;40.44;100861.28;5008298;28;20061;-42
2022/01/30 07:59:01;;;;;;;2.40;1.70;;;;;;;19.14;40.32;100855.19;5006701;28;20393;-42
2022/01/30 08:01:26;;;;;;;2.78;1.92;;;;;;;19.18;40.31;100858.25;4996705;28;20087;-43
2022/01/30 08:03:51;;;;;;;2.83;2.08;;;;;;;19.19;40.27;100867.81;5003353;28;20026;-40
2022/01/30 08:06:17;;;;;;;2.97;2.35;;;;;;;19.21;40.21;100848.13;5007975;28;20501;-39
2022/01/30 08:08:42;;;;;;;2.92;1.75;;;;;;;19.23;40.00;100858.50;4993587;28;20038;-43
2022/01/30 08:11:11;;;;;;;2.40;1.67;;;;;;;19.24;40.19;100865.44;5005786;28;20389;-42
2022/01/30 08:13:36;;;;;;;3.47;1.80;;;;;;;19.28;40.18;100856.13;5002575;28;20039;-41
2022/01/30 08:16:02;;;;;;;2.45;1.70;;;;;;;19.30;40.14;100853.28;5005242;28;20072;-41
2022/01/30 08:18:28;;;;;;;2.25;1.60;;;;;;;19.31;40.21;100862.84;5003546;28;20042;-40
2022/01/30 08:20:54;;;;;;;4.13;1.98;;;;;;;19.32;40.02;100860.00;5007258;28;20049;-41
2022/01/30 08:23:23;;;;;;;3.33;2.08;;;;;;;19.33;40.11;100848.44;4988359;28;20103;-42
2022/01/30 08:25:49;;;;;;;2.47;1.92;;;;;;;19.33;40.04;100848.44;4989781;28;20149;-39
2022/01/30 08:28:14;;;;;;;4.47;2.17;;;;;;;19.35;40.17;100841.13;4997174;28;20117;-41
2022/01/30 08:30:40;;;;;;;2.67;1.55;;;;;;;19.36;40.07;100858.63;5006171;28;20052;-39
2022/01/30 08:33:06;;;;;;;4.50;1.92;;;;;;;19.39;40.15;100857.38;4988242;28;20033;-41
2022/01/30 08:35:31;;;;;;;4.63;1.63;;;;;;;19.40;40.03;100853.72;4987655;28;20037;-43
2022/01/30 08:37:58;;;;;;;3.15;1.50;;;;;;;19.42;40.23;100857.00;4993964;28;20480;-42
2022/01/30 08:40:24;;;;;;;2.33;1.55;;;;;;;19.43;40.09;100853.34;5005787;28;20026;-42
2022/01/30 08:42:50;;;;;;;2.72;1.80;;;;;;;19.44;40.06;100842.59;5005049;28;20025;-41
2022/01/30 08:45:17;;;;;;;3.03;1.85;;;;;;;19.45;40.08;100857.44;5006063;28;20143;-41
2022/01/30 08:47:45;;;;;;;2.60;1.67;;;;;;;19.47;40.13;100849.31;4986802;28;20030;-42
2022/01/30 08:50:13;;;;;;;2.40;1.45;;;;;;;19.51;40.09;100842.66;5006689;28;20038;-42
2022/01/30 08:52:40;;;;;;;2.45;1.77;;;;;;;19.53;40.00;100838.81;4995959;28;20026;-43
2022/01/30 08:55:07;;;;;;;2.35;1.70;;;;;;;19.57;39.96;100835.78;5006628;28;20029;-42
2022/01/30 08:57:33;;;;;;;2.00;1.25;;;;;;;19.59;40.03;100847.00;4998930;28;20113;-41
2022/01/30 08:59:59;;;;;;;4.97;1.90;;;;;;;19.60;39.99;100838.06;4996272;28;20160;-41
2022/01/30 09:02:26;;;;;;;3.58;1.50;;;;;;;19.62;40.29;100833.38;5002908;28;20040;-45
2022/01/30 09:04:51;;;;;;;3.28;2.05;;;;;;;19.64;40.53;100831.38;5004004;28;20042;-41
2022/01/30 09:07:18;;;;;;;4.72;1.77;;;;;;;19.67;40.68;100841.56;4995705;28;20080;-42
2022/01/30 09:09:44;;;;;;;3.05;2.00;;;;;;;19.69;40.77;100826.31;4989492;28;20026;-41
2022/01/30 09:12:10;;;;;;;3.85;1.75;;;;;;;19.73;41.21;100825.72;5006113;28;20037;-43
2022/01/30 09:14:39;;;;;;;5.78;2.42;;;;;;;19.75;41.51;100831.66;5003416;28;20034;-47
2022/01/30 09:17:12;;;;;;;6.50;2.42;;;;;;;19.75;42.01;100830.81;5006216;28;20440;-47
2022/01/30 09:19:42;;;;;;;9.52;2.78;;;;;;;19.72;42.29;100831.22;4980017;28;20026;-47
2022/01/30 09:22:09;;;;;;;7.32;2.22;;;;;;;19.69;42.59;100826.31;5003918;28;20045;-43
2022/01/30 09:24:36;;;;;;;7.55;2.78;;;;;;;19.68;42.69;100825.50;5005523;28;20026;-41
2022/01/30 09:27:03;;;;;;;6.38;2.50;;;;;;;19.68;42.67;100827.31;5003404;28;20449;-43
2022/01/30 09:29:29;;;;;;;6.68;2.03;;;;;;;19.65;42.73;100825.88;5001304;28;20552;-42
2022/01/30 09:31:56;;;;;;;9.68;2.28;;;;;;;19.64;42.99;100828.72;4998472;28;20061;-43
2022/01/30 09:34:22;;;;;;;7.40;1.90;;;;;;;19.60;43.08;100840.69;4995908;28;20066;-43
2022/01/30 09:36:48;;;;;;;6.60;1.58;;;;;;;19.55;43.14;100830.69;4997809;28;20061;-45
2022/01/30 09:39:13;;;;;;;4.68;2.03;;;;;;;19.52;43.31;100833.72;4992862;28;20038;-44
2022/01/30 09:41:45;;;;;;;3.63;1.33;;;;;;;19.49;43.74;100832.25;4997213;28;20519;-42
2022/01/30 09:44:11;;;;;;;4.45;1.75;;;;;;;19.47;43.68;100842.22;5000169;28;20117;-41
2022/01/30 09:46:39;;;;;;;5.40;1.48;;;;;;;19.48;43.63;100832.44;4994820;28;20038;-44
2022/01/30 09:49:07;;;;;;;5.47;1.40;;;;;;;19.46;43.55;100839.75;4977286;28;20124;-42
2022/01/30 09:51:34;;;;;;;7.20;1.40;;;;;;;19.44;43.75;100821.44;4997135;28;20497;-42
2022/01/30 09:54:01;;;;;;;4.88;1.92;;;;;;;19.44;43.71;100824.09;4978486;28;20559;-43
2022/01/30 09:56:26;;;;;;;8.48;1.52;;;;;;;19.41;43.92;100823.66;5001506;28;20638;-43
2022/01/30 09:58:52;;;;;;;3.30;1.15;;;;;;;19.40;43.72;100816.75;4995412;28;20037;-40
2022/01/30 10:01:18;;;;;;;4.15;1.77;;;;;;;19.41;43.56;100821.03;4999323;28;20147;-39
2022/01/30 10:03:46;;;;;;;5.10;1.70;;;;;;;19.45;43.71;100816.97;4995374;28;20034;-44
2022/01/30 10:06:16;;;;;;;7.65;1.55;;;;;;;19.52;43.74;100816.06;5004123;28;20519;-42
2022/01/30 10:08:43;;;;;;;6.03;2.10;;;;;;;19.60;44.15;100832.75;4997644;28;20041;-42
2022/01/30 10:14:11;;;;;;;6.22;2.40;;;;;;;19.69;45.52;100831.59;4992396;28;20061;-41
2022/01/30 10:16:42;;;;;;;6.60;2.13;;;;;;;19.75;45.74;100812.31;4994432;28;20511;-41
2022/01/30 10:19:23;;;;;;;9.05;2.50;;;;;;;19.75;49.25;100801.75;4997571;28;20409;-40
2022/01/30 10:22:07;;;;;;;12.00;2.35;;;;;;;19.77;49.29;100818.22;4983484;28;20042;-48
2022/01/30 10:24:37;;;;;;;10.55;2.40;;;;;;;19.77;48.02;100797.91;5001569;28;20034;-40
2022/01/30 10:27:18;;;;;;;13.35;2.28;;;;;;;19.74;47.74;100802.75;4999456;28;20030;-41
2022/01/30 10:29:44;;;;;;;8.35;2.25;;;;;;;19.71;47.26;100796.03;4997865;28;20095;-45
2022/01/30 10:32:10;;;;;;;6.55;1.80;;;;;;;19.69;47.38;100807.81;4995542;28;20392;-43
2022/01/30 10:34:39;;;;;;;4.93;1.45;;;;;;;19.65;46.86;100793.34;4997027;28;20030;-39
2022/01/30 10:37:30;;;;;;;11.32;2.13;;;;;;;19.59;45.44;100788.84;4995216;28;20030;-43
2022/01/30 10:40:23;;;;;;;8.05;2.03;;;;;;;19.57;45.31;100794.31;4993700;28;20085;-45
2022/01/30 10:42:52;;;;;;;5.13;1.40;;;;;;;19.54;45.25;100782.31;4977422;28;20038;-46
2022/01/30 10:45:32;;;;;;;5.03;2.17;;;;;;;19.50;45.16;100783.69;5000368;28;20029;-44
2022/01/30 10:48:17;;;;;;;6.57;1.85;;;;;;;19.45;45.10;100798.50;4994614;28;20212;-42
2022/01/30 10:50:47;;;;;;;4.18;1.92;;;;;;;19.45;44.63;100795.84;5003161;28;20378;-42
2022/01/30 10:53:24;;;;;;;7.07;1.95;;;;;;;19.40;43.93;100788.50;4977477;28;20545;-39
2022/01/30 10:55:51;;;;;;;7.72;1.98;;;;;;;19.40;43.52;100785.03;5000418;28;20030;-48
2022/01/30 10:58:18;;;;;;;5.28;2.25;;;;;;;19.37;43.36;100781.00;5000734;28;20136;-48
2022/01/30 11:00:52;;;;;;;9.13;2.92;;;;;;;19.39;43.82;100784.22;4993521;28;20513;-45
2022/01/30 11:03:38;;;;;;;11.77;3.17;;;;;;;19.53;45.09;100778.03;5005415;28;20421;-60
2022/01/30 11:06:07;;;;;;;5.50;2.75;;;;;;;19.61;44.82;100770.97;4992864;28;20045;-43
2022/01/30 11:08:34;;;;;;;8.90;3.03;;;;;;;19.67;45.66;100775.47;4973872;28;20035;-53
2022/01/30 11:11:10;;;;;;;6.25;2.53;;;;;;;19.65;45.34;100780.97;4989132;28;20038;-42
2022/01/30 11:13:48;;;;;;;8.88;3.08;;;;;;;19.50;43.70;100775.75;4970160;28;20607;-45
2022/01/30 11:19:00;;;;;;;8.88;1.83;;;;;;;19.41;42.31;100771.63;5005294;28;20099;-43
2022/01/30 11:21:27;;;;;;;3.17;1.75;;;;;;;19.41;42.09;100769.00;5006696;28;20038;-41
2022/01/30 11:23:54;;;;;;;5.82;2.22;;;;;;;19.42;42.15;100773.28;5003069;28;20026;-41
2022/01/30 11:26:20;;;;;;;3.45;2.20;;;;;;;19.42;42.30;100767.97;4990206;28;20050;-44
2022/01/30 11:28:46;;;;;;;5.25;1.75;;;;;;;19.41;42.30;100761.06;4995014;28;20664;-43
2022/01/30 11:31:16;;;;;;;8.25;1.70;;;;;;;19.39;42.23;100757.81;5002278;28;20493;-43
2022/01/30 11:33:44;;;;;;;2.67;1.40;;;;;;;19.38;42.31;100768.56;4990592;28;20042;-43
2022/01/30 11:36:10;;;;;;;5.03;1.73;;;;;;;19.37;42.37;100764.31;4983987;28;20040;-42
2022/01/30 11:38:37;;;;;;;2.83;1.20;;;;;;;19.34;42.54;100768.16;5008489;28;20037;-45
2022/01/30 11:41:10;;;;;;;2.85;1.42;;;;;;;19.33;43.06;100761.25;5007514;28;20045;-43
2022/01/30 11:43:35;;;;;;;4.65;1.10;;;;;;;19.32;43.32;100761.44;5007281;28;20038;-46
2022/01/30 11:46:15;;;;;;;2.90;1.17;;;;;;;19.30;43.32;100764.28;4997822;28;20059;-41
2022/01/30 11:48:42;;;;;;;4.63;1.85;;;;;;;19.30;43.48;100758.19;5000783;28;21776;-45
2022/01/30 11:51:08;;;;;;;2.47;1.38;;;;;;;19.30;43.71;100759.00;4969394;28;20022;-42
2022/01/30 11:53:36;;;;;;;4.20;1.50;;;;;;;19.30;43.67;100758.19;4989713;28;20060;-42
2022/01/30 11:56:04;;;;;;;4.13;1.30;;;;;;;19.28;43.57;100747.81;4997796;28;20033;-45
2022/01/30 11:58:32;;;;;;;5.88;2.10;;;;;;;19.29;44.60;100754.72;5001993;28;20151;-39
2022/01/30 12:00:58;;;;;;;3.10;2.03;;;;;;;19.32;46.18;100746.41;5004431;28;20049;-40
2022/01/30 12:03:29;;;;;;;4.57;1.90;;;;;;;19.51;46.87;100747.53;5004578;28;20405;-47
2022/01/30 12:05:57;;;;;;;7.97;2.70;;;;;;;19.61;48.29;100736.59;5006678;28;20038;-43
2022/01/30 12:08:41;;;;;;;11.48;2.50;;;;;;;19.63;49.91;100734.59;5005415;28;20060;-42
2022/01/30 12:11:29;;;;;;;8.82;3.38;;;;;;;19.63;51.40;100727.47;5004381;28;20734;-45
2022/01/30 12:13:54;;;;;;;5.88;2.88;;;;;;;19.68;52.38;100719.78;4998187;28;20050;-47
2022/01/30 12:16:45;;;;;;;6.57;3.25;;;;;;;19.73;55.30;100725.28;4997804;28;20045;-47
2022/01/30 12:19:12;;;;;;;5.35;3.55;;;;;;;19.82;55.66;100725.94;4999052;28;20052;-45
2022/01/30 12:21:38;;;;;;;6.50;4.13;;;;;;;19.86;55.22;100711.28;4998262;28;20030;-39
2022/01/30 12:24:33;;;;;;;10.82;3.78;;;;;;;19.86;54.90;100706.78;5000998;28;20500;-39
2022/01/30 12:27:02;;;;;;;6.07;3.40;;;;;;;19.90;54.18;100712.50;5001736;28;20077;-47
2022/01/30 12:29:42;;;;;;;10.75;4.90;;;;;;;19.97;54.20;100712.53;4981076;28;20087;-40
2022/01/30 12:32:20;;;;;;;6.78;3.67;;;;;;;19.96;53.56;100711.72;4997806;28;20736;-40
2022/01/30 12:34:46;;;;;;;10.23;3.72;;;;;;;19.97;52.35;100710.69;4993175;28;20492;-43